createdAt,value
2022-12-23T00:01:28.518Z,9.13
2022-12-23T00:06:31.041Z,6.63
2022-12-23T00:11:33.571Z,6.43
2022-12-23T00:16:37.756Z,8.13
2022-12-23T00:21:40.225Z,6.43
2022-12-23T00:26:42.660Z,7.38
2022-12-23T00:31:46.365Z,7.88
2022-12-23T00:36:48.931Z,6.35
2022-12-23T00:42:10.239Z,6.78
2022-12-23T00:47:32.597Z,6.47
2022-12-23T00:52:35.082Z,6.53
2022-12-23T00:57:37.599Z,7.22
2022-12-23T01:02:58.813Z,7.10
2022-12-23T01:08:01.264Z,7.18
2022-12-23T01:13:04.287Z,6.10
2022-12-23T01:18:06.775Z,7.13
2022-12-23T01:23:09.203Z,5.82
2022-12-23T01:28:11.635Z,6.10
2022-12-23T01:33:14.090Z,5.88
2022-12-23T01:43:47.789Z,6.22
2022-12-23T01:48:53.262Z,5.07
2022-12-23T01:54:01.415Z,6.97
2022-12-23T01:59:09.926Z,5.88
2022-12-23T02:04:16.476Z,5.38
2022-12-23T02:09:33.983Z,6.32
2022-12-23T02:14:54.871Z,5.70
2022-12-23T02:20:32.569Z,4.45
2022-12-23T02:26:14.364Z,5.20
2022-12-23T02:31:46.305Z,4.88
2022-12-23T02:37:06.609Z,5.80
2022-12-23T02:42:20.964Z,5.53
2022-12-23T02:47:29.044Z,4.88
2022-12-23T02:52:34.691Z,4.50
2022-12-23T02:57:41.264Z,5.45
2022-12-23T03:08:07.892Z,5.28
2022-12-23T03:13:24.106Z,4.22
2022-12-23T03:18:52.238Z,5.70
2022-12-23T03:24:40.944Z,4.55
2022-12-23T03:30:02.406Z,4.93
2022-12-23T03:35:08.581Z,4.72
2022-12-23T03:40:31.958Z,4.88
2022-12-23T03:45:42.318Z,4.88
2022-12-23T03:50:46.770Z,4.80
2022-12-23T03:55:55.730Z,5.20
2022-12-23T04:01:04.988Z,5.20
2022-12-23T04:11:34.510Z,4.68
2022-12-23T04:16:37.400Z,4.90
2022-12-23T04:21:40.063Z,4.13
2022-12-23T04:26:42.608Z,4.22
2022-12-23T04:31:45.125Z,7.00
2022-12-23T04:36:47.658Z,4.97
2022-12-23T04:41:50.432Z,4.63
2022-12-23T04:46:53.086Z,4.25
2022-12-23T04:51:55.549Z,5.35
2022-12-23T04:56:57.979Z,4.32
2022-12-23T05:02:00.681Z,3.78
2022-12-23T05:07:03.435Z,3.72
2022-12-23T05:12:05.872Z,4.07
2022-12-23T05:17:08.349Z,3.80
2022-12-23T05:22:10.759Z,3.97
2022-12-23T05:27:13.510Z,7.07
2022-12-23T05:32:16.006Z,4.88
2022-12-23T05:37:18.482Z,4.18
2022-12-23T05:42:20.910Z,3.17
2022-12-23T05:47:23.327Z,4.50
2022-12-23T05:52:26.001Z,3.45
2022-12-23T05:57:28.445Z,3.10
2022-12-23T06:02:31.142Z,2.90
2022-12-23T06:07:33.826Z,3.67
2022-12-23T06:12:36.391Z,3.03
2022-12-23T06:17:39.134Z,3.63
2022-12-23T06:22:41.607Z,3.55
2022-12-23T06:27:44.184Z,4.07
2022-12-23T06:32:46.734Z,2.80
2022-12-23T06:37:49.283Z,3.97
2022-12-23T06:42:51.798Z,3.83
2022-12-23T06:47:54.442Z,2.60
2022-12-23T06:52:56.888Z,2.72
2022-12-23T06:57:59.285Z,3.63
2022-12-23T07:03:01.857Z,3.55
2022-12-23T07:08:04.542Z,3.10
2022-12-23T07:13:07.041Z,4.05
2022-12-23T07:18:09.527Z,3.63
2022-12-23T07:23:13.010Z,4.22
2022-12-23T07:28:15.467Z,3.58
2022-12-23T07:33:17.962Z,3.35
2022-12-23T07:43:40.418Z,3.80
2022-12-23T07:54:02.779Z,3.47
2022-12-23T07:59:05.265Z,6.07
2022-12-23T08:04:07.720Z,4.15
2022-12-23T08:09:11.757Z,4.25
2022-12-23T08:14:14.239Z,3.85
2022-12-23T08:19:16.835Z,3.78
2022-12-23T08:24:19.239Z,4.53
2022-12-23T08:29:21.741Z,4.13
2022-12-23T08:34:24.278Z,3.65
2022-12-23T08:39:26.924Z,3.25
2022-12-23T08:44:30.193Z,4.05
2022-12-23T08:49:32.606Z,3.83
2022-12-23T08:54:35.153Z,4.25
2022-12-23T08:59:37.558Z,3.30
2022-12-23T09:04:40.022Z,4.53
2022-12-23T09:09:42.575Z,4.13
2022-12-23T09:14:47.949Z,4.05
2022-12-23T09:19:52.905Z,3.65
2022-12-23T09:24:59.972Z,4.20
2022-12-23T09:35:27.430Z,3.47
2022-12-23T09:40:33.479Z,4.35
2022-12-23T09:45:45.287Z,4.28
2022-12-23T09:50:48.774Z,3.95
2022-12-23T09:56:02.818Z,5.05
2022-12-23T10:01:23.162Z,5.18
2022-12-23T10:06:29.553Z,4.32
2022-12-23T10:11:41.682Z,8.25
2022-12-23T10:16:49.845Z,5.00
2022-12-23T10:22:14.156Z,4.60
2022-12-23T10:27:30.290Z,4.22
2022-12-23T10:33:06.001Z,4.32
2022-12-23T10:38:47.234Z,4.40
2022-12-23T10:44:16.694Z,5.00
2022-12-23T10:49:22.153Z,4.93
2022-12-23T10:54:29.551Z,5.18
2022-12-23T10:59:34.079Z,6.25
2022-12-23T11:04:43.089Z,7.50
2022-12-23T11:09:55.434Z,8.10
2022-12-23T11:14:58.401Z,7.75
2022-12-23T11:20:12.584Z,7.45
2022-12-23T11:25:40.739Z,9.48
2022-12-23T11:30:50.502Z,8.27
2022-12-23T11:36:25.552Z,8.77
2022-12-23T11:41:34.192Z,9.02
2022-12-23T11:46:36.815Z,10.00
2022-12-23T11:51:39.294Z,9.95
2022-12-23T11:56:42.525Z,11.30
2022-12-23T12:01:49.184Z,11.35
2022-12-23T12:06:56.543Z,10.55
2022-12-23T12:17:38.332Z,10.52
2022-12-23T12:22:49.981Z,11.52
2022-12-23T12:28:03.212Z,8.98
2022-12-23T12:33:19.015Z,7.65
2022-12-23T12:38:29.608Z,8.40
2022-12-23T12:43:35.056Z,5.90
2022-12-23T12:49:01.673Z,5.60
2022-12-23T12:54:19.848Z,4.93
2022-12-23T12:59:27.562Z,4.72
2022-12-23T13:10:13.019Z,6.85
2022-12-23T13:15:22.228Z,6.03
2022-12-23T13:20:46.475Z,4.43
2022-12-23T13:26:00.932Z,4.95
2022-12-23T13:37:23.990Z,4.50
2022-12-23T13:42:48.744Z,4.70
2022-12-23T13:48:04.735Z,3.78
2022-12-23T13:53:36.288Z,5.07
2022-12-23T13:58:40.944Z,4.95
2022-12-23T14:03:44.922Z,5.53
2022-12-23T14:08:48.190Z,5.80
2022-12-23T14:13:50.599Z,4.60
2022-12-23T14:19:02.084Z,5.68
2022-12-23T14:24:36.511Z,4.93
2022-12-23T14:30:05.788Z,4.82
2022-12-23T14:35:42.716Z,4.95
2022-12-23T14:41:50.916Z,5.70
2022-12-23T14:52:42.648Z,6.13
2022-12-23T14:57:48.064Z,5.25
2022-12-23T15:02:56.489Z,5.28
2022-12-23T15:07:58.993Z,6.15
2022-12-23T15:13:03.442Z,6.03
2022-12-23T15:18:13.645Z,6.53
2022-12-23T15:23:18.823Z,8.23
2022-12-23T15:28:28.377Z,7.10
2022-12-23T15:34:02.046Z,6.65
2022-12-23T15:50:29.875Z,5.97
2022-12-23T15:55:58.620Z,5.45
2022-12-23T16:01:04.149Z,5.75
2022-12-23T16:06:24.498Z,5.47
2022-12-23T16:11:59.160Z,6.05
2022-12-23T16:17:14.266Z,6.40
2022-12-23T16:22:29.593Z,6.30
2022-12-23T16:27:44.954Z,6.75
2022-12-23T16:32:59.946Z,5.85
2022-12-23T16:38:23.760Z,6.32
2022-12-23T16:43:26.491Z,6.38
2022-12-23T16:48:33.793Z,6.47
2022-12-23T16:53:36.211Z,5.40
2022-12-23T16:58:39.042Z,7.55
2022-12-23T17:03:41.658Z,5.57
2022-12-23T17:08:44.214Z,6.30
2022-12-23T17:19:07.541Z,5.38
2022-12-23T17:24:20.695Z,6.60
2022-12-23T17:29:23.248Z,6.03
2022-12-23T17:34:25.720Z,5.63
2022-12-23T17:39:28.239Z,6.93
2022-12-23T17:44:30.757Z,5.78
2022-12-23T17:49:33.224Z,6.30
2022-12-23T17:54:35.653Z,5.95
2022-12-23T17:59:38.141Z,6.82
2022-12-23T18:04:40.643Z,6.47
2022-12-23T18:09:43.301Z,6.55
2022-12-23T18:14:45.843Z,6.22
2022-12-23T18:19:48.295Z,7.15
2022-12-23T18:24:57.024Z,6.10
2022-12-23T18:35:29.372Z,6.05
2022-12-23T18:40:33.221Z,5.32
2022-12-23T18:45:42.172Z,6.03
2022-12-23T18:50:46.065Z,5.53
2022-12-23T18:55:48.835Z,5.10
2022-12-23T19:00:53.389Z,4.65
2022-12-23T19:05:57.834Z,4.93
2022-12-23T19:11:00.660Z,5.15
2022-12-23T19:16:03.163Z,5.43
2022-12-23T19:21:06.027Z,4.63
2022-12-23T19:26:13.586Z,5.18
2022-12-23T19:31:17.517Z,6.03
2022-12-23T19:36:23.775Z,5.78
2022-12-23T19:41:26.415Z,5.40
2022-12-23T19:46:28.964Z,5.57
2022-12-23T19:51:31.527Z,5.82
2022-12-23T19:56:35.649Z,6.43
2022-12-23T20:01:38.219Z,6.70
2022-12-23T20:06:42.252Z,5.95
2022-12-23T20:11:49.557Z,6.78
2022-12-23T20:21:54.368Z,5.70
2022-12-23T20:26:59.540Z,5.78
2022-12-23T20:32:02.183Z,5.53
2022-12-23T20:37:04.910Z,6.82
2022-12-23T20:42:07.410Z,5.95
2022-12-23T20:47:10.167Z,5.78
2022-12-23T20:52:13.618Z,6.22
2022-12-23T20:57:16.052Z,6.82
2022-12-23T21:02:18.628Z,6.07
2022-12-23T21:07:21.153Z,6.63
2022-12-23T21:12:23.579Z,6.10
2022-12-23T21:17:26.527Z,6.22
2022-12-23T21:22:29.132Z,5.88
2022-12-23T21:27:31.719Z,5.85
2022-12-23T21:32:34.254Z,5.80
2022-12-23T21:37:36.743Z,5.95
2022-12-23T21:42:39.870Z,6.15
2022-12-23T21:47:42.299Z,5.25
2022-12-23T21:52:44.805Z,5.25
2022-12-23T21:57:47.441Z,4.70
2022-12-23T22:02:49.847Z,4.57
2022-12-23T22:13:12.178Z,4.60
2022-12-23T22:18:14.753Z,3.67
2022-12-23T22:23:17.294Z,3.65
2022-12-23T22:33:40.156Z,3.33
2022-12-23T22:38:43.670Z,3.72
2022-12-23T22:43:46.147Z,3.63
2022-12-23T22:48:48.892Z,4.18
2022-12-23T22:53:51.449Z,3.88
2022-12-23T22:58:54.774Z,4.20
2022-12-23T23:03:59.617Z,4.00
2022-12-23T23:09:02.247Z,4.82
2022-12-23T23:14:05.248Z,4.55
2022-12-23T23:19:09.425Z,4.05
2022-12-23T23:24:12.321Z,5.10
2022-12-23T23:29:14.890Z,4.88
2022-12-23T23:34:17.362Z,4.25
2022-12-23T23:39:19.781Z,4.40
2022-12-23T23:44:22.548Z,4.13
2022-12-23T23:49:25.173Z,4.47
2022-12-23T23:54:27.720Z,4.60
2022-12-23T23:59:30.258Z,4.75
